createdAt,value
2023-02-27T00:00:22.872Z,2.85
2023-02-27T00:02:51.520Z,2.90
2023-02-27T00:05:19.134Z,2.85
2023-02-27T00:07:45.473Z,2.67
2023-02-27T00:10:12.777Z,3.13
2023-02-27T00:12:39.290Z,2.85
2023-02-27T00:15:07.407Z,2.95
2023-02-27T00:17:34.073Z,3.30
2023-02-27T00:20:00.545Z,3.65
2023-02-27T00:22:27.386Z,3.53
2023-02-27T00:24:53.795Z,3.75
2023-02-27T00:27:20.145Z,3.47
2023-02-27T00:29:46.698Z,3.78
2023-02-27T00:32:13.103Z,3.67
2023-02-27T00:34:39.544Z,3.45
2023-02-27T00:37:05.898Z,3.38
2023-02-27T00:39:32.347Z,3.95
2023-02-27T00:41:58.724Z,2.83
2023-02-27T00:44:25.061Z,3.15
2023-02-27T00:46:51.519Z,2.95
2023-02-27T00:49:17.977Z,3.20
2023-02-27T00:51:44.300Z,3.10
2023-02-27T00:54:10.741Z,3.13
2023-02-27T00:56:37.185Z,3.00
2023-02-27T00:59:04.069Z,3.17
2023-02-27T01:01:30.430Z,2.92
2023-02-27T01:03:56.734Z,3.22
2023-02-27T01:06:23.045Z,3.30
2023-02-27T01:08:49.438Z,3.13
2023-02-27T01:11:15.812Z,3.10
2023-02-27T01:13:44.240Z,3.05
2023-02-27T01:16:11.466Z,3.20
2023-02-27T01:18:38.057Z,3.28
2023-02-27T01:21:04.957Z,3.03
2023-02-27T01:23:31.348Z,3.20
2023-02-27T01:25:57.697Z,3.00
2023-02-27T01:28:24.103Z,3.20
2023-02-27T01:30:50.509Z,3.05
2023-02-27T01:33:17.469Z,2.95
2023-02-27T01:35:43.861Z,3.50
2023-02-27T01:38:10.224Z,3.25
2023-02-27T01:40:41.324Z,2.95
2023-02-27T01:43:15.062Z,3.25
2023-02-27T01:45:42.664Z,3.40
2023-02-27T01:48:24.357Z,3.03
2023-02-27T01:50:55.594Z,3.30
2023-02-27T01:53:26.038Z,3.63
2023-02-27T01:56:02.289Z,3.15
2023-02-27T01:58:28.894Z,3.00
2023-02-27T02:00:55.829Z,3.28
2023-02-27T02:03:34.421Z,3.20
2023-02-27T02:06:02.607Z,3.45
2023-02-27T02:08:32.158Z,3.70
2023-02-27T02:10:59.221Z,3.60
2023-02-27T02:13:26.018Z,3.45
2023-02-27T02:16:37.455Z,3.45
2023-02-27T02:19:28.932Z,3.67
2023-02-27T02:22:16.437Z,4.20
2023-02-27T02:25:01.612Z,3.88
2023-02-27T02:28:02.070Z,3.97
2023-02-27T02:30:46.038Z,4.07
2023-02-27T02:33:20.281Z,4.47
2023-02-27T02:36:08.592Z,3.72
2023-02-27T02:38:50.161Z,4.13
2023-02-27T02:41:53.213Z,4.20
2023-02-27T02:44:52.145Z,3.78
2023-02-27T02:47:44.675Z,3.53
2023-02-27T02:50:14.163Z,3.75
2023-02-27T02:52:57.646Z,3.97
2023-02-27T02:55:34.304Z,4.07
2023-02-27T03:00:52.851Z,3.80
2023-02-27T03:03:26.893Z,3.30
2023-02-27T03:06:00.627Z,3.47
2023-02-27T03:08:31.589Z,3.85
2023-02-27T03:11:00.540Z,4.18
2023-02-27T03:13:35.529Z,4.00
2023-02-27T03:16:13.436Z,4.10
2023-02-27T03:18:53.907Z,3.88
2023-02-27T03:21:28.415Z,4.10
2023-02-27T03:23:59.650Z,4.05
2023-02-27T03:26:33.481Z,3.92
2023-02-27T03:29:14.297Z,3.88
2023-02-27T03:31:49.418Z,3.67
2023-02-27T03:34:21.031Z,3.97
2023-02-27T03:36:58.623Z,3.67
2023-02-27T03:39:41.344Z,4.10
2023-02-27T03:42:26.513Z,3.90
2023-02-27T03:45:00.706Z,4.43
2023-02-27T03:47:27.848Z,4.05
2023-02-27T03:49:55.720Z,4.00
2023-02-27T03:52:24.157Z,3.63
2023-02-27T03:54:57.742Z,3.95
2023-02-27T03:57:24.207Z,4.10
2023-02-27T03:59:51.286Z,3.72
2023-02-27T04:02:17.741Z,3.92
2023-02-27T04:04:44.157Z,3.83
2023-02-27T04:07:34.620Z,3.65
2023-02-27T04:10:28.970Z,4.75
2023-02-27T04:13:21.501Z,3.80
2023-02-27T04:16:28.636Z,4.13
2023-02-27T04:19:29.177Z,3.88
2023-02-27T04:22:30.199Z,4.00
2023-02-27T04:25:02.814Z,4.00
2023-02-27T04:27:39.417Z,4.10
2023-02-27T04:30:20.537Z,4.03
2023-02-27T04:33:03.469Z,3.92
2023-02-27T04:35:46.513Z,4.55
2023-02-27T04:38:32.187Z,4.18
2023-02-27T04:41:04.765Z,4.45
2023-02-27T04:43:32.591Z,4.72
2023-02-27T04:46:00.577Z,4.18
2023-02-27T04:48:33.191Z,4.22
2023-02-27T04:50:59.454Z,4.85
2023-02-27T04:53:31.400Z,4.65
2023-02-27T04:56:04.626Z,4.95
2023-02-27T04:58:38.885Z,4.65
2023-02-27T05:01:14.976Z,4.72
2023-02-27T05:03:48.400Z,4.63
2023-02-27T05:06:17.699Z,3.90
2023-02-27T05:08:59.327Z,5.03
2023-02-27T05:11:36.046Z,4.50
2023-02-27T05:14:12.460Z,4.80
2023-02-27T05:16:44.761Z,4.53
2023-02-27T05:19:11.268Z,4.93
2023-02-27T05:22:05.723Z,4.88
2023-02-27T05:25:00.706Z,4.10
2023-02-27T05:27:42.104Z,4.13
2023-02-27T05:30:23.519Z,4.65
2023-02-27T05:33:13.527Z,4.07
2023-02-27T05:36:03.429Z,4.68
2023-02-27T05:38:52.694Z,4.05
2023-02-27T05:41:31.061Z,4.72
2023-02-27T05:44:21.059Z,5.25
2023-02-27T05:46:54.499Z,4.85
2023-02-27T05:49:28.090Z,4.78
2023-02-27T05:51:57.351Z,5.38
2023-02-27T05:54:29.515Z,4.88
2023-02-27T05:56:58.528Z,4.40
2023-02-27T05:59:35.592Z,4.88
2023-02-27T06:02:02.099Z,4.32
2023-02-27T06:04:28.819Z,4.85
2023-02-27T06:06:55.271Z,4.55
2023-02-27T06:09:22.080Z,4.57
2023-02-27T06:11:48.399Z,5.10
2023-02-27T06:14:14.712Z,5.22
2023-02-27T06:16:41.116Z,4.75
2023-02-27T06:19:07.489Z,4.72
2023-02-27T06:21:33.908Z,4.78
2023-02-27T06:24:00.223Z,4.57
2023-02-27T06:26:26.854Z,5.25
2023-02-27T06:28:53.460Z,5.40
2023-02-27T06:31:19.905Z,5.28
2023-02-27T06:33:46.233Z,5.35
2023-02-27T06:36:12.689Z,7.72
2023-02-27T06:38:39.155Z,13.50
2023-02-27T06:41:05.653Z,10.02
2023-02-27T06:43:34.634Z,6.95
2023-02-27T06:46:01.077Z,5.93
2023-02-27T06:48:27.427Z,6.65
2023-02-27T06:50:56.174Z,7.40
2023-02-27T06:53:23.774Z,6.63
2023-02-27T06:55:50.489Z,6.78
2023-02-27T06:58:17.608Z,8.60
2023-02-27T07:00:44.252Z,7.53
2023-02-27T07:03:11.945Z,7.40
2023-02-27T07:05:38.272Z,6.32
2023-02-27T07:08:04.963Z,5.82
2023-02-27T07:10:31.316Z,7.70
2023-02-27T07:12:57.634Z,7.85
2023-02-27T07:15:24.294Z,7.70
2023-02-27T07:17:50.633Z,7.95
2023-02-27T07:20:17.139Z,7.65
2023-02-27T07:22:43.505Z,7.30
2023-02-27T07:25:10.044Z,8.48
2023-02-27T07:27:36.387Z,7.72
2023-02-27T07:30:02.859Z,9.13
2023-02-27T07:32:29.200Z,9.27
2023-02-27T07:34:55.573Z,8.63
2023-02-27T07:37:21.929Z,8.95
2023-02-27T07:39:48.286Z,8.48
2023-02-27T07:42:14.648Z,8.07
2023-02-27T07:44:41.086Z,6.93
2023-02-27T07:47:07.486Z,7.78
2023-02-27T07:49:33.872Z,6.80
2023-02-27T07:52:00.292Z,6.70
2023-02-27T07:54:27.490Z,6.10
2023-02-27T07:56:53.860Z,6.22
2023-02-27T07:59:20.292Z,6.35
2023-02-27T08:01:46.662Z,6.25
2023-02-27T08:04:13.054Z,6.50
2023-02-27T08:06:39.942Z,6.05
2023-02-27T08:09:06.312Z,5.32
2023-02-27T08:11:32.661Z,5.45
2023-02-27T08:14:00.854Z,5.88
2023-02-27T08:16:28.329Z,5.40
2023-02-27T08:18:55.094Z,5.80
2023-02-27T08:21:21.466Z,6.25
2023-02-27T08:23:47.879Z,5.90
2023-02-27T08:26:14.496Z,5.55
2023-02-27T08:28:41.301Z,5.28
2023-02-27T08:31:07.690Z,4.93
2023-02-27T08:33:34.473Z,4.80
2023-02-27T08:36:00.839Z,5.43
2023-02-27T08:38:27.763Z,5.10
2023-02-27T08:40:54.181Z,4.53
2023-02-27T08:43:23.774Z,5.07
2023-02-27T08:45:50.876Z,4.82
2023-02-27T08:48:18.435Z,4.45
2023-02-27T08:50:46.426Z,3.50
2023-02-27T08:53:13.218Z,3.72
2023-02-27T08:55:39.659Z,4.05
2023-02-27T08:58:06.119Z,4.22
2023-02-27T09:00:32.782Z,4.57
2023-02-27T09:03:00.450Z,5.32
2023-02-27T09:05:27.596Z,4.70
2023-02-27T09:07:53.981Z,4.32
2023-02-27T09:10:20.318Z,3.85
2023-02-27T09:12:49.095Z,4.30
2023-02-27T09:15:15.567Z,3.60
2023-02-27T09:17:41.942Z,3.90
2023-02-27T09:20:09.517Z,3.78
2023-02-27T09:22:36.002Z,3.53
2023-02-27T09:25:02.857Z,3.30
2023-02-27T09:27:29.211Z,3.33
2023-02-27T09:29:56.317Z,3.70
2023-02-27T09:32:23.368Z,2.90
2023-02-27T09:34:49.879Z,3.33
2023-02-27T09:37:19.068Z,2.83
2023-02-27T09:39:46.418Z,2.90
2023-02-27T09:42:21.884Z,3.00
2023-02-27T09:44:52.238Z,2.80
2023-02-27T09:47:26.684Z,3.45
2023-02-27T09:50:22.209Z,3.10
2023-02-27T09:52:48.565Z,3.22
2023-02-27T09:55:21.444Z,3.33
2023-02-27T09:58:06.742Z,2.97
2023-02-27T10:00:49.603Z,3.00
2023-02-27T10:03:53.433Z,2.90
2023-02-27T10:06:26.790Z,3.80
2023-02-27T10:09:12.405Z,4.03
2023-02-27T10:12:00.138Z,4.47
2023-02-27T10:14:41.970Z,3.53
2023-02-27T10:17:38.683Z,3.83
2023-02-27T10:20:10.572Z,2.97
2023-02-27T10:22:42.920Z,3.83
2023-02-27T10:25:29.690Z,3.10
2023-02-27T10:28:08.783Z,2.97
2023-02-27T10:30:36.808Z,2.70
2023-02-27T10:33:18.987Z,3.10
2023-02-27T10:35:45.999Z,2.97
2023-02-27T10:38:21.110Z,3.10
2023-02-27T10:40:48.251Z,3.33
2023-02-27T10:43:18.974Z,3.58
2023-02-27T10:45:45.349Z,3.63
2023-02-27T10:48:12.434Z,4.03
2023-02-27T10:50:42.494Z,3.08
2023-02-27T10:53:24.703Z,3.30
2023-02-27T10:56:07.876Z,2.65
2023-02-27T10:58:36.777Z,2.58
2023-02-27T11:01:06.953Z,2.90
2023-02-27T11:03:42.170Z,2.58
2023-02-27T11:06:19.618Z,2.53
2023-02-27T11:09:18.099Z,3.17
2023-02-27T11:11:44.486Z,2.63
2023-02-27T11:14:32.763Z,2.30
2023-02-27T11:17:01.774Z,2.63
2023-02-27T11:19:38.351Z,2.67
2023-02-27T11:22:15.462Z,2.88
2023-02-27T11:24:42.195Z,2.28
2023-02-27T11:27:26.985Z,2.20
2023-02-27T11:30:20.621Z,2.25
2023-02-27T11:32:49.792Z,1.92
2023-02-27T11:35:25.348Z,1.88
2023-02-27T11:37:54.261Z,2.25
2023-02-27T11:40:25.154Z,1.83
2023-02-27T11:43:03.699Z,1.58
2023-02-27T11:46:19.453Z,1.80
2023-02-27T11:48:27.445Z,1.63
2023-02-27T11:51:06.980Z,1.70
2023-02-27T11:53:48.479Z,1.55
2023-02-27T11:56:20.897Z,2.28
2023-02-27T11:59:30.047Z,1.92
2023-02-27T12:02:01.387Z,2.22
2023-02-27T12:04:41.401Z,2.35
2023-02-27T12:07:31.038Z,1.73
2023-02-27T12:10:12.582Z,1.92
2023-02-27T12:12:55.302Z,2.35
2023-02-27T12:15:30.206Z,2.50
2023-02-27T12:18:07.899Z,2.80
2023-02-27T12:21:02.338Z,2.53
2023-02-27T12:23:40.989Z,2.45
2023-02-27T12:26:19.033Z,2.85
2023-02-27T12:28:56.998Z,2.53
2023-02-27T12:31:35.443Z,3.10
2023-02-27T12:34:27.242Z,2.80
2023-02-27T12:36:54.162Z,3.42
2023-02-27T12:39:23.637Z,3.55
2023-02-27T12:41:59.114Z,2.60
2023-02-27T12:44:37.859Z,2.67
2023-02-27T12:47:32.190Z,2.70
2023-02-27T12:50:15.128Z,2.70
2023-02-27T12:53:20.456Z,2.85
2023-02-27T12:56:01.701Z,3.03
2023-02-27T12:59:06.004Z,2.40
2023-02-27T13:01:47.893Z,2.30
2023-02-27T13:04:23.721Z,2.80
2023-02-27T13:09:40.808Z,2.03
2023-02-27T13:12:07.061Z,1.98
2023-02-27T13:14:51.741Z,2.22
2023-02-27T13:17:29.711Z,2.22
2023-02-27T13:20:19.232Z,2.13
2023-02-27T13:22:53.125Z,1.90
2023-02-27T13:25:20.268Z,2.33
2023-02-27T13:27:55.571Z,2.42
2023-02-27T13:30:27.339Z,2.58
2023-02-27T13:32:58.890Z,2.40
2023-02-27T13:35:40.264Z,1.95
2023-02-27T13:38:46.889Z,2.22
2023-02-27T13:41:27.739Z,2.60
2023-02-27T13:44:20.395Z,2.22
2023-02-27T13:46:47.136Z,1.90
2023-02-27T13:49:28.776Z,2.40
2023-02-27T13:51:59.407Z,2.20
2023-02-27T13:54:29.347Z,2.30
2023-02-27T13:56:57.594Z,2.67
2023-02-27T13:59:36.518Z,2.38
2023-02-27T14:02:31.066Z,2.53
2023-02-27T14:05:01.553Z,2.00
2023-02-27T14:07:33.670Z,1.70
2023-02-27T14:10:05.402Z,2.00
2023-02-27T14:12:46.329Z,1.77
2023-02-27T14:15:15.788Z,2.35
2023-02-27T14:17:44.877Z,2.00
2023-02-27T14:20:17.362Z,1.80
2023-02-27T14:23:15.284Z,2.05
2023-02-27T14:25:45.441Z,2.10
2023-02-27T14:28:30.558Z,2.50
2023-02-27T14:31:01.787Z,1.88
2023-02-27T14:33:40.630Z,1.85
2023-02-27T14:36:18.882Z,1.83
2023-02-27T14:38:45.936Z,1.80
2023-02-27T14:41:21.326Z,2.35
2023-02-27T14:43:57.512Z,2.10
2023-02-27T14:46:23.978Z,1.77
2023-02-27T14:49:02.610Z,1.65
2023-02-27T14:51:35.875Z,1.80
2023-02-27T14:54:23.912Z,1.63
2023-02-27T14:56:59.107Z,1.63
2023-02-27T14:59:34.583Z,2.00
2023-02-27T15:02:04.287Z,2.17
2023-02-27T15:04:32.734Z,1.70
2023-02-27T15:07:00.238Z,1.83
2023-02-27T15:09:44.553Z,1.77
2023-02-27T15:12:17.649Z,1.60
2023-02-27T15:14:49.258Z,1.65
2023-02-27T15:17:19.181Z,1.63
2023-02-27T15:19:52.369Z,1.60
2023-02-27T15:22:39.799Z,1.80
2023-02-27T15:25:25.633Z,1.83
2023-02-27T15:27:52.400Z,1.70
2023-02-27T15:30:21.627Z,1.90
2023-02-27T15:32:47.957Z,1.30
2023-02-27T15:35:24.489Z,1.75
2023-02-27T15:37:57.029Z,1.80
2023-02-27T15:40:31.904Z,1.58
2023-02-27T15:42:59.341Z,1.80
2023-02-27T15:45:35.231Z,1.70
2023-02-27T15:48:02.968Z,1.90
2023-02-27T15:50:37.074Z,2.13
2023-02-27T15:53:12.062Z,2.10
2023-02-27T15:55:44.762Z,1.90
2023-02-27T15:58:26.257Z,2.05
2023-02-27T16:01:00.973Z,1.92
2023-02-27T16:03:42.328Z,1.92
2023-02-27T16:06:18.036Z,1.90
2023-02-27T16:08:52.609Z,1.80
2023-02-27T16:11:30.576Z,2.03
2023-02-27T16:13:57.793Z,1.90
2023-02-27T16:16:35.006Z,1.80
2023-02-27T16:19:27.105Z,1.83
2023-02-27T16:22:12.655Z,2.35
2023-02-27T16:24:39.001Z,2.25
2023-02-27T16:27:05.647Z,2.00
2023-02-27T16:29:37.001Z,2.92
2023-02-27T16:32:04.017Z,2.20
2023-02-27T16:34:45.528Z,2.45
2023-02-27T16:37:43.232Z,1.80
2023-02-27T16:40:20.390Z,2.30
2023-02-27T16:42:46.833Z,2.30
2023-02-27T16:45:18.828Z,3.28
2023-02-27T16:47:49.155Z,3.47
2023-02-27T16:50:22.910Z,3.22
2023-02-27T16:52:49.247Z,2.88
2023-02-27T16:55:15.727Z,2.70
2023-02-27T16:57:42.126Z,2.65
2023-02-27T17:00:13.329Z,2.55
2023-02-27T17:02:39.774Z,2.17
2023-02-27T17:05:06.359Z,2.30
2023-02-27T17:07:33.153Z,3.25
2023-02-27T17:10:00.350Z,3.03
2023-02-27T17:12:27.351Z,2.85
2023-02-27T17:14:53.879Z,2.90
2023-02-27T17:17:20.208Z,2.67
2023-02-27T17:19:46.633Z,7.13
2023-02-27T17:22:13.089Z,5.63
2023-02-27T17:24:39.493Z,3.53
2023-02-27T17:27:05.828Z,3.42
2023-02-27T17:29:32.182Z,3.40
2023-02-27T17:31:58.567Z,3.40
2023-02-27T17:34:25.070Z,3.15
2023-02-27T17:36:53.109Z,3.78
2023-02-27T17:39:19.549Z,3.80
2023-02-27T17:41:46.313Z,3.10
2023-02-27T17:44:13.237Z,4.47
2023-02-27T17:46:40.516Z,4.53
2023-02-27T17:49:07.526Z,4.95
2023-02-27T17:51:34.078Z,4.75
2023-02-27T17:54:03.573Z,5.20
2023-02-27T17:56:30.206Z,4.88
2023-02-27T17:58:57.534Z,3.80
2023-02-27T18:01:26.229Z,3.85
2023-02-27T18:03:54.210Z,4.20
2023-02-27T18:06:21.678Z,3.78
2023-02-27T18:08:49.342Z,4.20
2023-02-27T18:11:18.698Z,4.22
2023-02-27T18:13:45.702Z,3.75
2023-02-27T18:16:12.895Z,5.38
2023-02-27T18:18:42.113Z,4.75
2023-02-27T18:21:12.794Z,4.18
2023-02-27T18:23:39.826Z,4.55
2023-02-27T18:26:07.133Z,6.40
2023-02-27T18:28:34.784Z,5.05
2023-02-27T18:31:01.174Z,5.90
2023-02-27T18:33:27.549Z,5.93
2023-02-27T18:35:54.438Z,5.40
2023-02-27T18:38:20.765Z,6.00
2023-02-27T18:40:47.168Z,5.68
2023-02-27T18:43:13.966Z,6.10
2023-02-27T18:45:41.098Z,7.50
2023-02-27T18:48:07.844Z,7.60
2023-02-27T18:50:34.762Z,6.57
2023-02-27T18:53:01.250Z,7.47
2023-02-27T18:55:27.595Z,11.25
2023-02-27T18:57:54.016Z,11.25
2023-02-27T19:00:21.904Z,7.90
2023-02-27T19:02:48.371Z,8.80
2023-02-27T19:05:14.863Z,12.40
2023-02-27T19:07:42.468Z,7.55
2023-02-27T19:10:10.165Z,8.48
2023-02-27T19:12:36.797Z,9.10
2023-02-27T19:15:04.285Z,12.18
2023-02-27T19:17:30.610Z,9.20
2023-02-27T19:19:57.000Z,8.88
2023-02-27T19:22:23.405Z,6.50
2023-02-27T19:24:50.128Z,5.55
2023-02-27T19:27:17.174Z,5.35
2023-02-27T19:29:43.853Z,5.47
2023-02-27T19:32:10.678Z,4.90
2023-02-27T19:34:37.126Z,5.38
2023-02-27T19:37:03.526Z,5.75
2023-02-27T19:39:29.952Z,6.25
2023-02-27T19:41:56.629Z,6.72
2023-02-27T19:44:23.157Z,6.15
2023-02-27T19:46:52.056Z,6.95
2023-02-27T19:49:19.758Z,7.13
2023-02-27T19:51:46.145Z,8.50
2023-02-27T19:54:13.681Z,6.57
2023-02-27T19:56:40.118Z,6.18
2023-02-27T19:59:06.460Z,5.65
2023-02-27T20:01:36.196Z,5.80
2023-02-27T20:04:03.493Z,5.07
2023-02-27T20:06:33.178Z,4.68
2023-02-27T20:09:00.292Z,4.47
2023-02-27T20:11:31.462Z,5.05
2023-02-27T20:13:58.579Z,5.70
2023-02-27T20:16:28.148Z,5.22
2023-02-27T20:18:55.027Z,4.78
2023-02-27T20:21:24.030Z,4.75
2023-02-27T20:23:51.808Z,4.65
2023-02-27T20:26:31.694Z,5.40
2023-02-27T20:29:01.464Z,5.78
2023-02-27T20:31:30.528Z,5.15
2023-02-27T20:33:58.202Z,6.15
2023-02-27T20:36:24.645Z,6.68
2023-02-27T20:38:51.081Z,5.90
2023-02-27T20:41:20.520Z,5.72
2023-02-27T20:43:48.151Z,5.53
2023-02-27T20:46:20.423Z,5.47
2023-02-27T20:48:47.271Z,6.20
2023-02-27T20:51:19.904Z,5.55
2023-02-27T20:53:48.821Z,5.93
2023-02-27T20:56:15.667Z,7.03
2023-02-27T20:58:42.120Z,6.70
2023-02-27T21:01:10.534Z,6.63
2023-02-27T21:03:41.427Z,6.75
2023-02-27T21:06:10.952Z,6.93
2023-02-27T21:08:39.257Z,6.75
2023-02-27T21:11:15.176Z,6.32
2023-02-27T21:13:42.116Z,5.25
2023-02-27T21:16:10.486Z,4.53
2023-02-27T21:18:38.050Z,5.38
2023-02-27T21:21:06.461Z,4.78
2023-02-27T21:23:34.321Z,5.22
2023-02-27T21:26:00.797Z,4.70
2023-02-27T21:28:27.215Z,4.55
2023-02-27T21:30:54.650Z,4.35
2023-02-27T21:33:22.325Z,4.97
2023-02-27T21:35:48.830Z,4.28
2023-02-27T21:38:16.377Z,4.47
2023-02-27T21:40:42.910Z,4.40
2023-02-27T21:43:09.623Z,4.20
2023-02-27T21:45:41.367Z,4.47
2023-02-27T21:48:08.179Z,4.32
2023-02-27T21:50:35.882Z,4.30
2023-02-27T21:53:02.365Z,4.35
2023-02-27T21:55:28.803Z,4.75
2023-02-27T21:57:55.252Z,4.78
2023-02-27T22:00:25.368Z,4.80
2023-02-27T22:02:51.991Z,4.60
2023-02-27T22:05:18.626Z,4.35
2023-02-27T22:07:45.185Z,4.57
2023-02-27T22:10:11.703Z,4.35
2023-02-27T22:12:38.027Z,4.97
2023-02-27T22:15:05.285Z,4.82
2023-02-27T22:17:31.642Z,4.60
2023-02-27T22:19:58.053Z,4.72
2023-02-27T22:22:24.481Z,5.18
2023-02-27T22:24:50.923Z,4.57
2023-02-27T22:27:17.353Z,4.07
2023-02-27T22:29:43.697Z,4.55
2023-02-27T22:32:10.301Z,4.55
2023-02-27T22:34:36.786Z,4.50
2023-02-27T22:37:03.205Z,4.75
2023-02-27T22:39:29.743Z,4.50
2023-02-27T22:41:56.958Z,4.57
2023-02-27T22:44:23.414Z,4.38
2023-02-27T22:46:50.330Z,4.55
2023-02-27T22:49:22.147Z,4.93
2023-02-27T22:51:51.127Z,4.90
2023-02-27T22:54:18.884Z,4.45
2023-02-27T22:56:45.380Z,4.60
2023-02-27T22:59:11.872Z,5.32
2023-02-27T23:01:38.336Z,4.57
2023-02-27T23:04:08.273Z,4.63
2023-02-27T23:06:37.296Z,4.45
2023-02-27T23:09:06.196Z,5.20
2023-02-27T23:11:32.830Z,5.45
2023-02-27T23:13:59.390Z,5.57
2023-02-27T23:16:26.109Z,5.72
2023-02-27T23:18:54.718Z,5.97
2023-02-27T23:21:24.213Z,6.30
2023-02-27T23:23:53.291Z,6.93
2023-02-27T23:26:20.147Z,8.15
2023-02-27T23:28:46.578Z,6.85
2023-02-27T23:31:13.094Z,7.30
2023-02-27T23:33:39.545Z,7.18
2023-02-27T23:36:06.304Z,6.70
2023-02-27T23:38:32.786Z,6.63
2023-02-27T23:41:05.314Z,6.53
2023-02-27T23:43:50.386Z,7.55
2023-02-27T23:46:16.725Z,7.18
2023-02-27T23:48:43.664Z,6.85
2023-02-27T23:51:11.438Z,6.50
2023-02-27T23:53:40.303Z,6.18
2023-02-27T23:56:14.325Z,5.43
2023-02-27T23:58:40.872Z,5.38
